createdAt,value
2016-10-20T00:00:17.637Z,12.45
2016-10-20T00:01:17.640Z,12.42
2016-10-20T00:02:17.657Z,12.39
2016-10-20T00:03:17.777Z,12.35
2016-10-20T00:04:17.386Z,12.42
2016-10-20T00:05:18.039Z,12.42
2016-10-20T00:06:17.732Z,12.36
2016-10-20T00:07:18.079Z,12.39
2016-10-20T00:08:17.775Z,12.39
2016-10-20T00:09:17.474Z,12.32
2016-10-20T00:10:17.811Z,12.32
2016-10-20T00:11:17.827Z,12.4
2016-10-20T00:12:17.852Z,12.32
2016-10-20T00:13:17.868Z,12.29
2016-10-20T00:14:17.569Z,12.39
2016-10-20T00:15:17.593Z,12.31
2016-10-20T00:16:17.927Z,12.32
2016-10-20T00:17:18.256Z,12.29
2016-10-20T00:18:17.960Z,12.28
2016-10-20T00:19:17.979Z,12.22
2016-10-20T00:20:18.000Z,12.21
2016-10-20T00:21:18.014Z,12.32
2016-10-20T00:22:18.043Z,12.28
2016-10-20T00:23:18.407Z,12.28
2016-10-20T00:24:18.072Z,12.28
2016-10-20T00:25:18.410Z,12.28
2016-10-20T00:26:18.109Z,12.28
2016-10-20T00:27:18.447Z,12.22
2016-10-20T00:28:18.463Z,12.27
2016-10-20T00:29:17.851Z,12.27
2016-10-20T00:30:18.191Z,12.27
2016-10-20T00:31:18.207Z,12.29
2016-10-20T00:32:18.539Z,12.24
2016-10-20T00:33:18.568Z,12.28
2016-10-20T00:34:18.580Z,12.25
2016-10-20T00:35:18.283Z,12.15
2016-10-20T00:36:18.339Z,12.28
2016-10-20T00:37:18.008Z,12.27
2016-10-20T00:38:18.340Z,12.25
2016-10-20T00:39:18.370Z,12.25
2016-10-20T00:40:18.378Z,12.21
2016-10-20T00:41:18.083Z,12.27
2016-10-20T00:42:18.415Z,12.24
2016-10-20T00:43:18.152Z,12.29
2016-10-20T00:44:18.451Z,12.35
2016-10-20T00:45:18.795Z,12.27
2016-10-20T00:46:18.527Z,12.24
2016-10-20T00:47:18.826Z,12.31
2016-10-20T00:48:18.214Z,12.25
2016-10-20T00:49:18.865Z,12.22
2016-10-20T00:50:18.566Z,12.31
2016-10-20T00:51:18.270Z,12.25
2016-10-20T00:52:18.920Z,12.32
2016-10-20T00:53:18.309Z,12.36
2016-10-20T00:54:18.642Z,12.4
2016-10-20T00:55:18.345Z,12.35
2016-10-20T00:56:18.363Z,12.27
2016-10-20T00:57:18.700Z,12.27
2016-10-20T00:58:19.068Z,12.28
2016-10-20T00:59:18.420Z,12.32
2016-10-20T01:00:19.072Z,12.27
2016-10-20T01:01:18.777Z,12.35
2016-10-20T01:02:18.498Z,12.32
2016-10-20T01:03:18.817Z,12.27
2016-10-20T01:04:18.513Z,12.25
2016-10-20T01:05:18.749Z,12.24
2016-10-20T01:06:18.592Z,12.22
2016-10-20T01:07:18.573Z,12.2
2016-10-20T01:08:18.588Z,12.31
2016-10-20T01:09:18.609Z,12.31
2016-10-20T01:10:18.951Z,12.24
2016-10-20T01:11:18.648Z,12.31
2016-10-20T01:12:18.670Z,12.29
2016-10-20T01:13:19.006Z,12.24
2016-10-20T01:14:19.021Z,12.27
2016-10-20T01:15:19.040Z,12.32
2016-10-20T01:16:19.057Z,12.25
2016-10-20T01:17:19.080Z,12.28
2016-10-20T01:18:18.782Z,12.27
2016-10-20T01:19:19.165Z,12.28
2016-10-20T01:20:19.135Z,12.32
2016-10-20T01:21:19.153Z,12.27
2016-10-20T01:22:19.204Z,12.35
2016-10-20T01:23:19.195Z,12.37
2016-10-20T01:24:18.894Z,12.32
2016-10-20T01:25:19.545Z,12.27
2016-10-20T01:26:18.933Z,12.32
2016-10-20T01:27:18.953Z,12.29
2016-10-20T01:28:19.323Z,12.25
2016-10-20T01:29:19.312Z,12.24
2016-10-20T01:30:19.641Z,12.28
2016-10-20T01:31:19.375Z,12.32
2016-10-20T01:32:19.364Z,12.25
2016-10-20T01:33:19.068Z,12.29
2016-10-20T01:34:19.713Z,12.35
2016-10-20T01:35:19.420Z,12.36
2016-10-20T01:36:19.131Z,12.27
2016-10-20T01:37:19.141Z,12.25
2016-10-20T01:38:19.164Z,12.29
2016-10-20T01:39:19.495Z,12.29
2016-10-20T01:40:19.520Z,12.29
2016-10-20T01:41:19.535Z,12.24
2016-10-20T01:42:19.865Z,12.22
2016-10-20T01:43:19.891Z,12.27
2016-10-20T01:44:19.909Z,12.31
2016-10-20T01:45:19.608Z,12.28
2016-10-20T01:46:19.648Z,12.25
2016-10-20T01:47:19.340Z,12.24
2016-10-20T01:48:19.669Z,12.28
2016-10-20T01:49:19.685Z,12.29
2016-10-20T01:50:19.700Z,12.29
2016-10-20T01:51:20.039Z,12.22
2016-10-20T01:52:19.428Z,12.28
2016-10-20T01:53:19.479Z,12.2
2016-10-20T01:54:19.775Z,12.29
2016-10-20T01:55:19.799Z,12.32
2016-10-20T01:56:19.541Z,12.21
2016-10-20T01:57:19.520Z,12.2
2016-10-20T01:58:19.538Z,12.17
2016-10-20T01:59:19.874Z,12.17
2016-10-20T02:00:20.209Z,12.21
2016-10-20T02:01:19.910Z,12.22
2016-10-20T02:02:19.929Z,12.27
2016-10-20T02:03:19.630Z,12.25
2016-10-20T02:04:19.969Z,12.25
2016-10-20T02:05:19.985Z,12.2
2016-10-20T02:06:20.007Z,12.17
2016-10-20T02:07:20.027Z,12.1
2016-10-20T02:08:19.732Z,12.06
2016-10-20T02:09:19.772Z,12.13
2016-10-20T02:10:20.084Z,12.13
2016-10-20T02:11:20.100Z,12.09
2016-10-20T02:12:20.142Z,12.07
2016-10-20T02:13:20.462Z,12.2
2016-10-20T02:14:20.158Z,12.15
2016-10-20T02:15:20.194Z,12.24
2016-10-20T02:16:20.197Z,12.18
2016-10-20T02:17:19.900Z,12.17
2016-10-20T02:18:20.233Z,12.07
2016-10-20T02:19:19.938Z,12.18
2016-10-20T02:20:20.271Z,12.1
2016-10-20T02:21:20.324Z,12.06
2016-10-20T02:22:19.993Z,12.13
2016-10-20T02:23:20.013Z,12.06
2016-10-20T02:24:20.660Z,12.1
2016-10-20T02:25:20.370Z,12.15
2016-10-20T02:26:20.075Z,12.13
2016-10-20T02:27:20.090Z,12.12
2016-10-20T02:28:20.426Z,12.15
2016-10-20T02:29:20.441Z,12.21
2016-10-20T02:30:20.482Z,12.24
2016-10-20T02:31:20.173Z,12.22
2016-10-20T02:32:20.498Z,12.07
2016-10-20T02:33:20.831Z,12.1
2016-10-20T02:34:20.227Z,12.07
2016-10-20T02:35:20.554Z,12.12
2016-10-20T02:36:20.573Z,12.17
2016-10-20T02:37:20.905Z,12.15
2016-10-20T02:38:20.612Z,12.07
2016-10-20T02:39:20.329Z,12.12
2016-10-20T02:40:20.648Z,12.07
2016-10-20T02:41:20.667Z,12.04
2016-10-20T02:42:20.705Z,12.07
2016-10-20T02:43:20.392Z,12.06
2016-10-20T02:44:20.724Z,12.13
2016-10-20T02:45:21.077Z,12.2
2016-10-20T02:46:20.769Z,12.15
2016-10-20T02:47:21.095Z,12.2
2016-10-20T02:48:21.113Z,12.07
2016-10-20T02:49:20.820Z,12.21
2016-10-20T02:50:20.523Z,12.09
2016-10-20T02:51:20.543Z,12.15
2016-10-20T02:52:20.877Z,12.22
2016-10-20T02:53:20.916Z,12.18
2016-10-20T02:54:20.928Z,12.21
2016-10-20T02:55:20.937Z,12.2
2016-10-20T02:56:20.642Z,12.18
2016-10-20T02:57:20.657Z,12.1
2016-10-20T02:58:20.993Z,12.2
2016-10-20T02:59:21.011Z,12.2
2016-10-20T03:00:20.728Z,12.18
2016-10-20T03:01:21.051Z,12.27
2016-10-20T03:02:21.068Z,12.18
2016-10-20T03:03:21.085Z,12.2
2016-10-20T03:04:21.105Z,12.2
2016-10-20T03:05:20.812Z,12.22
2016-10-20T03:06:20.829Z,12.2
2016-10-20T03:07:21.162Z,12.17
2016-10-20T03:08:21.203Z,12.17
2016-10-20T03:09:21.515Z,12.32
2016-10-20T03:10:20.939Z,12.31
2016-10-20T03:11:21.575Z,12.22
2016-10-20T03:12:21.292Z,12.22
2016-10-20T03:13:20.963Z,12.18
2016-10-20T03:14:21.295Z,12.25
2016-10-20T03:15:21.641Z,12.27
2016-10-20T03:16:21.676Z,12.2
2016-10-20T03:17:21.042Z,12.18
2016-10-20T03:18:21.719Z,12.28
2016-10-20T03:19:21.391Z,12.25
2016-10-20T03:20:21.426Z,12.22
2016-10-20T03:21:21.109Z,12.32
2016-10-20T03:22:21.450Z,12.32
2016-10-20T03:23:21.168Z,12.25
2016-10-20T03:24:21.177Z,12.21
2016-10-20T03:25:21.187Z,12.32
2016-10-20T03:26:21.522Z,12.22
2016-10-20T03:27:21.222Z,12.27
2016-10-20T03:28:21.871Z,12.27
2016-10-20T03:29:21.263Z,12.25
2016-10-20T03:30:21.610Z,12.31
2016-10-20T03:31:21.621Z,12.28
2016-10-20T03:32:21.325Z,12.35
2016-10-20T03:33:21.376Z,12.29
2016-10-20T03:34:21.673Z,12.43
2016-10-20T03:35:21.375Z,12.35
2016-10-20T03:36:21.714Z,12.42
2016-10-20T03:37:21.416Z,12.39
2016-10-20T03:38:21.767Z,12.39
2016-10-20T03:39:21.766Z,12.39
2016-10-20T03:40:21.815Z,12.37
2016-10-20T03:41:21.837Z,12.45
2016-10-20T03:42:21.857Z,12.42
2016-10-20T03:43:21.527Z,12.39
2016-10-20T03:44:21.863Z,12.36
2016-10-20T03:45:22.201Z,12.39
2016-10-20T03:46:22.213Z,12.35
2016-10-20T03:47:21.606Z,12.45
2016-10-20T03:48:21.946Z,12.47
2016-10-20T03:49:21.640Z,12.42
2016-10-20T03:50:21.658Z,12.5
2016-10-20T03:51:21.997Z,12.47
2016-10-20T03:52:22.013Z,12.45
2016-10-20T03:53:22.053Z,12.47
2016-10-20T03:54:22.055Z,12.46
2016-10-20T03:55:22.071Z,12.5
2016-10-20T03:56:22.104Z,12.46
2016-10-20T03:57:22.426Z,12.5
2016-10-20T03:58:22.137Z,12.45
2016-10-20T03:59:22.458Z,12.46
2016-10-20T04:00:22.173Z,12.5
2016-10-20T04:01:22.191Z,12.58
2016-10-20T04:02:21.892Z,12.49
2016-10-20T04:03:22.223Z,12.45
2016-10-20T04:04:22.573Z,12.46
2016-10-20T04:05:21.942Z,12.46
2016-10-20T04:06:22.592Z,12.43
2016-10-20T04:07:22.635Z,12.4
2016-10-20T04:08:22.738Z,12.31
2016-10-20T04:09:22.651Z,12.31
2016-10-20T04:10:22.671Z,12.35
2016-10-20T04:11:22.056Z,12.49
2016-10-20T04:12:22.079Z,12.36
2016-10-20T04:13:22.408Z,12.42
2016-10-20T04:14:22.461Z,12.47
2016-10-20T04:15:22.769Z,12.46
2016-10-20T04:16:22.467Z,12.46
2016-10-20T04:17:22.173Z,12.46
2016-10-20T04:18:22.823Z,12.46
2016-10-20T04:19:22.524Z,12.46
2016-10-20T04:20:22.552Z,12.45
2016-10-20T04:21:22.257Z,12.53
2016-10-20T04:22:22.262Z,12.46
2016-10-20T04:23:22.606Z,12.49
2016-10-20T04:24:22.303Z,12.46
2016-10-20T04:25:22.638Z,12.55
2016-10-20T04:26:22.345Z,12.57
2016-10-20T04:27:22.995Z,12.6
2016-10-20T04:28:23.013Z,12.6
2016-10-20T04:29:22.399Z,12.57
2016-10-20T04:30:22.437Z,12.57
2016-10-20T04:31:22.752Z,12.58
2016-10-20T04:32:22.775Z,12.65
2016-10-20T04:33:22.488Z,12.61
2016-10-20T04:34:22.500Z,12.58
2016-10-20T04:35:22.836Z,12.57
2016-10-20T04:36:23.163Z,12.57
2016-10-20T04:37:22.867Z,12.67
2016-10-20T04:38:22.889Z,12.6
2016-10-20T04:39:22.905Z,12.67
2016-10-20T04:40:22.606Z,12.64
2016-10-20T04:41:23.262Z,12.65
2016-10-20T04:42:23.298Z,12.65
2016-10-20T04:43:22.982Z,12.57
2016-10-20T04:44:23.000Z,12.64
2016-10-20T04:45:23.029Z,12.6
2016-10-20T04:46:22.785Z,12.6
2016-10-20T04:47:23.058Z,12.61
2016-10-20T04:48:22.764Z,12.67
2016-10-20T04:49:22.799Z,12.7
2016-10-20T04:50:23.115Z,12.68
2016-10-20T04:51:23.130Z,12.68
2016-10-20T04:52:23.564Z,12.57
2016-10-20T04:53:23.481Z,12.64
2016-10-20T04:54:23.189Z,12.58
2016-10-20T04:55:22.895Z,12.64
2016-10-20T04:56:23.229Z,12.6
2016-10-20T04:57:23.247Z,12.57
2016-10-20T04:58:23.269Z,12.61
2016-10-20T04:59:22.972Z,12.65
2016-10-20T05:00:23.636Z,12.61
2016-10-20T05:01:23.638Z,12.61
2016-10-20T05:02:23.346Z,12.64
2016-10-20T05:03:23.046Z,12.61
2016-10-20T05:04:23.384Z,12.61
2016-10-20T05:05:23.400Z,12.65
2016-10-20T05:06:23.418Z,12.6
2016-10-20T05:07:23.121Z,12.62
2016-10-20T05:08:23.462Z,12.64
2016-10-20T05:09:23.164Z,12.65
2016-10-20T05:10:23.495Z,12.62
2016-10-20T05:11:23.515Z,12.61
2016-10-20T05:12:23.221Z,12.68
2016-10-20T05:13:23.868Z,12.6
2016-10-20T05:14:23.574Z,12.64
2016-10-20T05:15:23.599Z,12.6
2016-10-20T05:16:23.934Z,12.58
2016-10-20T05:17:23.947Z,12.54
2016-10-20T05:18:23.654Z,12.49
2016-10-20T05:19:23.684Z,12.49
2016-10-20T05:20:23.698Z,12.43
2016-10-20T05:21:23.394Z,12.47
2016-10-20T05:22:23.729Z,12.5
2016-10-20T05:23:23.440Z,12.43
2016-10-20T05:24:23.764Z,12.32
2016-10-20T05:25:23.785Z,12.46
2016-10-20T05:26:23.805Z,12.5
2016-10-20T05:27:23.825Z,12.46
2016-10-20T05:28:23.847Z,12.43
2016-10-20T05:29:24.183Z,12.45
2016-10-20T05:30:24.200Z,12.4
2016-10-20T05:31:23.899Z,12.5
2016-10-20T05:32:23.916Z,12.36
2016-10-20T05:33:23.943Z,12.47
2016-10-20T05:34:23.974Z,12.45
2016-10-20T05:35:23.983Z,12.47
2016-10-20T05:36:23.993Z,12.42
2016-10-20T05:37:24.330Z,12.36
2016-10-20T05:38:24.037Z,12.45
2016-10-20T05:39:24.048Z,12.36
2016-10-20T05:40:24.386Z,12.4
2016-10-20T05:41:23.799Z,12.42
2016-10-20T05:42:24.108Z,12.46
2016-10-20T05:43:24.447Z,12.42
2016-10-20T05:44:24.464Z,12.39
2016-10-20T05:45:24.491Z,12.27
2016-10-20T05:46:24.501Z,12.29
2016-10-20T05:47:24.521Z,12.24
2016-10-20T05:48:24.534Z,12.24
2016-10-20T05:49:24.561Z,12.27
2016-10-20T05:50:24.260Z,12.2
2016-10-20T05:51:24.274Z,12.21
2016-10-20T05:52:24.300Z,12.24
2016-10-20T05:53:24.330Z,12.21
2016-10-20T05:54:24.021Z,12.28
2016-10-20T05:55:24.354Z,12.24
2016-10-20T05:56:24.056Z,12.28
2016-10-20T05:57:24.711Z,12.27
2016-10-20T05:58:24.408Z,12.18
2016-10-20T05:59:24.441Z,12.24
2016-10-20T06:00:24.168Z,12.18
2016-10-20T06:01:24.158Z,12.1
2016-10-20T06:02:24.706Z,12.09
2016-10-20T06:03:24.934Z,12.09
2016-10-20T06:04:24.526Z,12.09
2016-10-20T06:05:24.226Z,12.15
2016-10-20T06:06:24.567Z,12.13
2016-10-20T06:07:24.267Z,12.17
2016-10-20T06:08:24.913Z,12.21
2016-10-20T06:09:24.937Z,12.29
2016-10-20T06:10:24.952Z,12.04
2016-10-20T06:11:24.655Z,12.15
2016-10-20T06:12:25.014Z,12.17
2016-10-20T06:13:24.699Z,12.17
2016-10-20T06:14:24.720Z,12.17
2016-10-20T06:15:24.728Z,12.09
2016-10-20T06:16:24.751Z,12.12
2016-10-20T06:17:24.772Z,12.1
2016-10-20T06:18:24.495Z,12.04
2016-10-20T06:19:24.815Z,12.1
2016-10-20T06:20:24.820Z,12.13
2016-10-20T06:21:24.846Z,12.24
2016-10-20T06:22:24.545Z,12.18
2016-10-20T06:23:24.874Z,12.18
2016-10-20T06:24:24.898Z,12.07
2016-10-20T06:25:24.618Z,12.03
2016-10-20T06:26:25.246Z,12.06
2016-10-20T06:27:24.952Z,12.09
2016-10-20T06:28:24.658Z,12.07
2016-10-20T06:29:25.308Z,12.15
2016-10-20T06:30:24.691Z,12.24
2016-10-20T06:31:25.030Z,12.13
2016-10-20T06:32:24.730Z,12.18
2016-10-20T06:33:24.774Z,12.22
2016-10-20T06:34:25.404Z,12.17
2016-10-20T06:35:25.426Z,12.21
2016-10-20T06:36:24.804Z,12.18
2016-10-20T06:37:25.457Z,12.2
2016-10-20T06:38:25.476Z,12.28
2016-10-20T06:39:25.179Z,12.25
2016-10-20T06:40:24.898Z,12.2
2016-10-20T06:41:24.899Z,12.29
2016-10-20T06:42:25.231Z,12.25
2016-10-20T06:43:25.255Z,12.27
2016-10-20T06:44:24.958Z,12.31
2016-10-20T06:45:25.609Z,12.25
2016-10-20T06:46:25.001Z,12.35
2016-10-20T06:47:25.647Z,12.31
2016-10-20T06:48:25.055Z,12.37
2016-10-20T06:49:25.061Z,12.36
2016-10-20T06:50:25.071Z,12.31
2016-10-20T06:51:25.409Z,12.28
2016-10-20T06:52:25.420Z,12.22
2016-10-20T06:53:25.457Z,12.31
2016-10-20T06:54:25.459Z,12.28
2016-10-20T06:55:25.485Z,12.27
2016-10-20T06:56:25.181Z,12.28
2016-10-20T06:57:25.833Z,12.27
2016-10-20T06:58:25.538Z,12.27
2016-10-20T06:59:25.239Z,12.21
2016-10-20T07:00:25.257Z,12.28
2016-10-20T07:01:25.906Z,12.28
2016-10-20T07:02:25.612Z,12.29
2016-10-20T07:03:25.627Z,12.24
2016-10-20T07:04:25.650Z,12.35
2016-10-20T07:05:25.355Z,12.43
2016-10-20T07:06:25.368Z,12.39
2016-10-20T07:07:25.723Z,12.4
2016-10-20T07:08:25.402Z,12.36
2016-10-20T07:09:25.738Z,12.32
2016-10-20T07:10:25.458Z,12.28
2016-10-20T07:11:25.466Z,12.28
2016-10-20T07:12:26.000Z,12.24
2016-10-20T07:13:25.827Z,12.24
2016-10-20T07:14:25.520Z,12.32
2016-10-20T07:15:25.549Z,12.21
2016-10-20T07:16:25.878Z,12.22
2016-10-20T07:17:26.208Z,12.24
2016-10-20T07:18:25.917Z,12.24
2016-10-20T07:19:25.929Z,12.24
2016-10-20T07:20:25.947Z,12.24
2016-10-20T07:21:25.967Z,12.28
2016-10-20T07:22:25.671Z,12.22
2016-10-20T07:23:25.687Z,12.37
2016-10-20T07:24:26.042Z,12.35
2016-10-20T07:25:25.760Z,12.43
2016-10-20T07:26:26.378Z,12.45
2016-10-20T07:27:26.395Z,12.32
2016-10-20T07:28:25.790Z,12.47
2016-10-20T07:29:25.808Z,12.43
2016-10-20T07:30:26.137Z,12.5
2016-10-20T07:31:26.472Z,12.45
2016-10-20T07:32:25.857Z,12.45
2016-10-20T07:33:26.191Z,12.47
2016-10-20T07:34:26.213Z,12.53
2016-10-20T07:35:25.918Z,12.46
2016-10-20T07:36:26.248Z,12.57
2016-10-20T07:37:25.952Z,12.65
2016-10-20T07:38:26.285Z,12.57
2016-10-20T07:39:26.622Z,12.57
2016-10-20T07:40:26.322Z,12.57
2016-10-20T07:41:26.345Z,12.57
2016-10-20T07:42:26.046Z,12.58
2016-10-20T07:43:26.696Z,12.57
2016-10-20T07:44:26.710Z,12.6
2016-10-20T07:45:26.424Z,12.58
2016-10-20T07:46:26.359Z,12.57
2016-10-20T07:47:26.456Z,12.61
2016-10-20T07:48:26.477Z,12.64
2016-10-20T07:49:26.493Z,12.68
2016-10-20T07:50:26.542Z,12.7
2016-10-20T07:51:26.535Z,12.61
2016-10-20T07:52:26.563Z,12.61
2016-10-20T07:53:26.891Z,12.58
2016-10-20T07:54:26.289Z,12.61
2016-10-20T07:55:26.299Z,12.58
2016-10-20T07:56:26.628Z,12.62
2016-10-20T07:57:26.327Z,12.64
2016-10-20T07:58:26.988Z,12.64
2016-10-20T07:59:26.687Z,12.64
2016-10-20T08:00:27.018Z,12.58
2016-10-20T08:01:27.040Z,12.64
2016-10-20T08:02:26.743Z,12.57
2016-10-20T08:03:26.763Z,12.47
2016-10-20T08:04:27.098Z,12.58
2016-10-20T08:05:26.822Z,12.55
2016-10-20T08:06:26.506Z,12.62
2016-10-20T08:07:27.157Z,12.6
2016-10-20T08:08:26.879Z,12.62
2016-10-20T08:09:26.571Z,12.64
2016-10-20T08:10:27.213Z,12.73
2016-10-20T08:11:26.912Z,12.61
2016-10-20T08:12:27.250Z,12.79
2016-10-20T08:13:26.975Z,12.73
2016-10-20T08:14:26.966Z,12.78
2016-10-20T08:15:26.990Z,12.8
2016-10-20T08:16:27.362Z,12.72
2016-10-20T08:17:26.730Z,12.78
2016-10-20T08:18:27.047Z,12.73
2016-10-20T08:19:27.068Z,12.75
2016-10-20T08:20:27.099Z,12.75
2016-10-20T08:21:27.142Z,12.68
2016-10-20T08:22:27.127Z,12.72
2016-10-20T08:23:27.498Z,12.73
2016-10-20T08:24:26.859Z,12.79
2016-10-20T08:25:27.181Z,12.76
2016-10-20T08:26:27.203Z,12.7
2016-10-20T08:27:26.906Z,12.82
2016-10-20T08:28:26.939Z,12.78
2016-10-20T08:29:27.272Z,12.93
2016-10-20T08:30:27.278Z,12.94
2016-10-20T08:31:27.314Z,12.97
2016-10-20T08:32:27.320Z,12.95
2016-10-20T08:33:27.370Z,12.95
2016-10-20T08:34:27.042Z,12.93
2016-10-20T08:35:27.380Z,12.8
2016-10-20T08:36:27.076Z,12.78
2016-10-20T08:37:27.467Z,12.83
2016-10-20T08:38:27.123Z,12.93
2016-10-20T08:39:27.140Z,12.93
2016-10-20T08:40:27.823Z,12.95
2016-10-20T08:41:27.177Z,12.91
2016-10-20T08:42:27.510Z,12.95
2016-10-20T08:43:27.569Z,13.03
2016-10-20T08:44:27.548Z,13.19
2016-10-20T08:45:27.252Z,13.18
2016-10-20T08:46:27.914Z,13.15
2016-10-20T08:47:27.293Z,13.23
2016-10-20T08:48:27.316Z,13.28
2016-10-20T08:49:27.654Z,13.3
2016-10-20T08:50:27.675Z,13.3
2016-10-20T08:51:27.686Z,13.33
2016-10-20T08:52:28.014Z,13.33
2016-10-20T08:53:27.718Z,13.37
2016-10-20T08:54:27.742Z,13.42
2016-10-20T08:55:27.479Z,13.31
2016-10-20T08:56:27.788Z,13.37
2016-10-20T08:57:27.809Z,13.28
2016-10-20T08:58:27.878Z,13.27
2016-10-20T08:59:27.519Z,13.31
2016-10-20T09:00:27.546Z,13.31
2016-10-20T09:01:27.878Z,13.46
2016-10-20T09:02:27.583Z,13.38
2016-10-20T09:03:27.916Z,13.41
2016-10-20T09:04:27.625Z,13.41
2016-10-20T09:05:27.639Z,13.47
2016-10-20T09:06:27.978Z,13.59
2016-10-20T09:07:27.682Z,13.65
2016-10-20T09:08:28.339Z,13.7
2016-10-20T09:09:28.364Z,13.74
2016-10-20T09:10:28.373Z,13.72
2016-10-20T09:11:28.073Z,13.78
2016-10-20T09:12:28.099Z,13.9
2016-10-20T09:13:28.114Z,14
2016-10-20T09:14:28.137Z,14.22
2016-10-20T09:15:28.518Z,14.32
2016-10-20T09:16:28.183Z,14.59
2016-10-20T09:17:28.517Z,14.62
2016-10-20T09:18:27.918Z,14.69
2016-10-20T09:19:28.286Z,14.89
2016-10-20T09:20:28.264Z,14.92
2016-10-20T09:21:28.276Z,14.91
2016-10-20T09:22:27.978Z,14.96
2016-10-20T09:23:28.358Z,14.94
2016-10-20T09:24:28.027Z,15.02
2016-10-20T09:25:28.380Z,15.15
2016-10-20T09:26:28.075Z,15.22
2016-10-20T09:27:28.411Z,15.25
2016-10-20T09:28:28.109Z,15.36
2016-10-20T09:29:28.448Z,15.37
2016-10-20T09:30:28.464Z,15.55
2016-10-20T09:31:28.845Z,15.55
2016-10-20T09:32:28.511Z,15.52
2016-10-20T09:33:28.529Z,15.61
2016-10-20T09:34:28.240Z,15.82
2016-10-20T09:35:28.907Z,15.91
2016-10-20T09:36:28.908Z,16.05
2016-10-20T09:37:28.615Z,16.17
2016-10-20T09:38:28.631Z,16.21
2016-10-20T09:39:28.343Z,16.2
2016-10-20T09:40:28.368Z,16.13
2016-10-20T09:41:28.698Z,16.09
2016-10-20T09:42:28.720Z,16.13
2016-10-20T09:43:28.428Z,16.1
2016-10-20T09:44:29.087Z,15.97
2016-10-20T09:45:28.826Z,16
2016-10-20T09:46:28.494Z,15.98
2016-10-20T09:47:28.835Z,15.94
2016-10-20T09:48:28.533Z,15.98
2016-10-20T09:49:28.877Z,15.92
2016-10-20T09:50:29.212Z,15.86
2016-10-20T09:51:28.937Z,15.82
2016-10-20T09:52:28.942Z,15.72
2016-10-20T09:53:28.680Z,15.76
2016-10-20T09:54:28.680Z,15.75
2016-10-20T09:55:29.006Z,15.75
2016-10-20T09:56:29.030Z,15.61
2016-10-20T09:57:29.373Z,15.79
2016-10-20T09:58:29.083Z,15.76
2016-10-20T09:59:28.788Z,15.64
2016-10-20T10:00:28.795Z,15.59
2016-10-20T10:01:28.819Z,15.57
2016-10-20T10:02:29.158Z,15.54
2016-10-20T10:03:29.235Z,15.51
2016-10-20T10:04:29.195Z,15.51
2016-10-20T10:05:28.904Z,15.52
2016-10-20T10:06:29.244Z,15.35
2016-10-20T10:07:29.260Z,15.35
2016-10-20T10:08:29.285Z,15.31
2016-10-20T10:09:29.621Z,15.18
2016-10-20T10:10:29.330Z,15.22
2016-10-20T10:11:29.348Z,15.22
2016-10-20T10:12:29.070Z,15.21
2016-10-20T10:13:29.424Z,15.25
2016-10-20T10:14:29.409Z,15.22
2016-10-20T10:15:29.428Z,15.15
2016-10-20T10:16:29.454Z,15.22
2016-10-20T10:17:29.808Z,15.19
2016-10-20T10:18:29.807Z,15.04
2016-10-20T10:19:29.513Z,15.03
2016-10-20T10:20:44.108Z,15.02
2016-10-20T10:21:29.239Z,14.89
2016-10-20T10:22:29.591Z,15.03
2016-10-20T10:23:29.607Z,15.02
2016-10-20T10:24:29.956Z,15.07
2016-10-20T10:25:29.961Z,15.02
2016-10-20T10:26:29.977Z,14.94
2016-10-20T10:27:29.369Z,14.96
2016-10-20T10:28:29.702Z,14.96
2016-10-20T10:29:29.731Z,15.06
2016-10-20T10:30:29.748Z,15
2016-10-20T10:31:29.454Z,15.03
2016-10-20T10:32:29.475Z,15.03
2016-10-20T10:33:29.809Z,15.04
2016-10-20T10:34:29.831Z,15.03
2016-10-20T10:35:30.163Z,15.07
2016-10-20T10:36:30.187Z,15.03
2016-10-20T10:37:29.898Z,15.14
2016-10-20T10:38:29.913Z,15.06
2016-10-20T10:39:29.933Z,15.03
2016-10-20T10:40:29.956Z,15.04
2016-10-20T10:41:29.657Z,15.03
2016-10-20T10:42:30.000Z,15.04
2016-10-20T10:43:30.015Z,15.07
2016-10-20T10:44:30.352Z,15.07
2016-10-20T10:45:30.376Z,15.19
2016-10-20T10:46:30.079Z,15.19
2016-10-20T10:47:30.100Z,15.25
2016-10-20T10:48:29.816Z,15.31
2016-10-20T10:49:30.182Z,15.28
2016-10-20T10:50:30.160Z,15.21
2016-10-20T10:51:30.518Z,15.18
2016-10-20T10:52:30.213Z,15.21
2016-10-20T10:53:30.227Z,15.18
2016-10-20T10:54:29.930Z,15.27
2016-10-20T10:55:29.951Z,15.15
2016-10-20T10:56:30.289Z,15.07
2016-10-20T10:57:30.622Z,15.17
2016-10-20T10:58:30.328Z,15.15
2016-10-20T10:59:30.674Z,15.11
2016-10-20T11:00:30.371Z,15.11
2016-10-20T11:01:30.075Z,15.28
2016-10-20T11:02:30.096Z,15.35
2016-10-20T11:03:30.765Z,15.36
2016-10-20T11:04:30.456Z,15.33
2016-10-20T11:05:30.474Z,15.22
2016-10-20T11:06:30.498Z,15.27
2016-10-20T11:07:30.836Z,15.33
2016-10-20T11:08:30.541Z,15.35
2016-10-20T11:09:30.560Z,15.27
2016-10-20T11:10:30.580Z,15.19
2016-10-20T11:11:30.918Z,15.24
2016-10-20T11:12:30.623Z,15.24
2016-10-20T11:13:30.645Z,15.22
2016-10-20T11:14:30.662Z,15.31
2016-10-20T11:15:30.683Z,15.35
2016-10-20T11:16:30.704Z,15.39
2016-10-20T11:17:31.049Z,15.37
2016-10-20T11:18:30.767Z,15.43
2016-10-20T11:19:30.769Z,15.43
2016-10-20T11:20:30.798Z,15.36
2016-10-20T11:21:30.493Z,15.35
2016-10-20T11:22:30.832Z,15.36
2016-10-20T11:23:30.866Z,15.47
2016-10-20T11:24:31.190Z,15.44
2016-10-20T11:25:31.233Z,15.47
2016-10-20T11:26:30.934Z,15.37
2016-10-20T11:27:30.625Z,15.51
2016-10-20T11:28:30.691Z,15.54
2016-10-20T11:29:30.664Z,15.57
2016-10-20T11:30:31.314Z,15.61
2016-10-20T11:31:30.710Z,15.62
2016-10-20T11:32:31.358Z,15.59
2016-10-20T11:33:31.387Z,15.64
2016-10-20T11:34:30.782Z,15.61
2016-10-20T11:35:31.112Z,15.58
2016-10-20T11:36:30.808Z,15.67
2016-10-20T11:37:30.835Z,15.75
2016-10-20T11:38:31.176Z,15.84
2016-10-20T11:39:30.880Z,15.95
2016-10-20T11:40:31.257Z,15.98
2016-10-20T11:41:31.232Z,15.91
2016-10-20T11:42:30.956Z,15.9
2016-10-20T11:43:30.967Z,15.84
2016-10-20T11:44:30.996Z,15.84
2016-10-20T11:45:31.012Z,15.94
2016-10-20T11:46:31.020Z,16.05
2016-10-20T11:47:31.070Z,16.13
2016-10-20T11:48:31.381Z,16.33
2016-10-20T11:49:31.104Z,16.41
2016-10-20T11:50:31.422Z,16.54
2016-10-20T11:51:31.128Z,16.43
2016-10-20T11:52:31.155Z,16.41
2016-10-20T11:53:31.171Z,16.33
2016-10-20T11:54:31.522Z,16.16
2016-10-20T11:55:31.215Z,16.17
2016-10-20T11:56:31.552Z,16.09
2016-10-20T11:57:31.261Z,16.05
2016-10-20T11:58:31.911Z,16.08
2016-10-20T11:59:31.317Z,15.98
2016-10-20T12:00:31.646Z,15.94
2016-10-20T12:01:31.661Z,15.98
2016-10-20T12:02:31.686Z,15.77
2016-10-20T12:03:31.396Z,15.84
2016-10-20T12:04:32.044Z,15.72
2016-10-20T12:05:31.543Z,15.8
2016-10-20T12:06:31.467Z,15.75
2016-10-20T12:07:31.476Z,15.64
2016-10-20T12:08:31.815Z,15.64
2016-10-20T12:09:31.520Z,15.75
2016-10-20T12:10:31.864Z,15.91
2016-10-20T12:11:31.561Z,15.97
2016-10-20T12:12:32.232Z,16.12
2016-10-20T12:13:31.613Z,16.1
2016-10-20T12:14:31.947Z,16.2
2016-10-20T12:15:31.648Z,16.17
2016-10-20T12:16:31.989Z,16.01
2016-10-20T12:17:31.688Z,16.13
2016-10-20T12:18:32.024Z,16.1
2016-10-20T12:19:32.057Z,15.97
2016-10-20T12:20:31.797Z,15.86
2016-10-20T12:21:32.096Z,15.77
2016-10-20T12:22:32.115Z,15.86
2016-10-20T12:23:31.836Z,15.72
2016-10-20T12:24:31.844Z,15.7
2016-10-20T12:25:32.187Z,15.76
2016-10-20T12:26:32.663Z,15.83
2016-10-20T12:27:32.541Z,15.98
2016-10-20T12:28:32.271Z,16.08
2016-10-20T12:29:31.963Z,16.02
2016-10-20T12:30:32.292Z,16.13
2016-10-20T12:31:32.313Z,16.28
2016-10-20T12:32:32.643Z,16.23
2016-10-20T12:33:32.035Z,16.26
2016-10-20T12:34:32.376Z,16.32
2016-10-20T12:35:32.101Z,16.51
2016-10-20T12:36:32.775Z,16.6
2016-10-20T12:37:32.177Z,16.58
2016-10-20T12:38:32.601Z,16.57
2016-10-20T12:39:32.799Z,16.56
2016-10-20T12:40:32.842Z,16.5
2016-10-20T12:41:32.651Z,16.61
2016-10-20T12:42:32.318Z,16.74
2016-10-20T12:43:32.322Z,16.72
2016-10-20T12:44:32.591Z,16.79
2016-10-20T12:45:32.616Z,16.93
2016-10-20T12:46:32.639Z,16.94
2016-10-20T12:47:32.668Z,17.12
2016-10-20T12:48:33.011Z,17.16
2016-10-20T12:49:32.398Z,17.27
2016-10-20T12:50:33.047Z,17.29
2016-10-20T12:51:32.745Z,17.36
2016-10-20T12:52:32.771Z,17.39
2016-10-20T12:53:33.115Z,17.3
2016-10-20T12:54:32.500Z,17.29
2016-10-20T12:55:32.522Z,17.29